Time;durP1;ratioP1;P1;durP2;ratioP2;P2;SDS_P1;SDS_P2;PMS_P1;PMS_P2;Temp;Humidity;BMP_temperature;BMP_pressure;BME280_temperature;BME280_humidity;BME280_pressure;Samples;Min_cycle;Max_cycle;Signal;HPM_P1;HPM_P2
2022/06/16 00:01:40;;;;;;;6.18;5.68;;;;;;;23.17;56.98;95625.81;5013829;28;20206;-85
2022/06/16 00:04:07;;;;;;;9.35;7.03;;;;;;;23.00;57.52;95629.41;5013980;28;20234;-85
2022/06/16 00:06:33;;;;;;;6.82;5.88;;;;;;;22.99;57.65;95619.94;5012918;28;20203;-83
2022/06/16 00:09:04;;;;;;;6.03;5.53;;;;;;;23.02;57.83;95621.25;5014745;28;20725;-82
2022/06/16 00:11:31;;;;;;;6.47;5.18;;;;;;;23.05;57.72;95624.19;5001210;28;20250;-82
2022/06/16 00:13:57;;;;;;;8.35;5.13;;;;;;;23.02;57.54;95627.31;5013520;28;20230;-84
2022/06/16 00:16:25;;;;;;;5.35;4.85;;;;;;;23.09;56.98;95619.22;5012471;28;20567;-83
2022/06/16 00:18:51;;;;;;;5.40;4.90;;;;;;;23.05;57.30;95623.38;5014325;28;20577;-85
2022/06/16 00:21:19;;;;;;;5.65;4.57;;;;;;;23.06;56.87;95617.88;5012303;28;20195;-82
2022/06/16 00:23:46;;;;;;;5.65;5.07;;;;;;;23.07;56.57;95618.69;5013854;28;20253;-85
2022/06/16 00:26:19;;;;;;;5.13;4.72;;;;;;;23.03;56.22;95610.50;5002560;28;20199;-83
2022/06/16 00:28:46;;;;;;;5.28;4.88;;;;;;;23.00;56.37;95621.50;5002215;28;20225;-83
2022/06/16 00:31:14;;;;;;;8.27;5.07;;;;;;;22.96;56.40;95620.44;5002117;28;20230;-83
2022/06/16 00:33:42;;;;;;;5.47;4.53;;;;;;;22.97;56.86;95621.22;5000400;28;20261;-84
2022/06/16 00:36:09;;;;;;;6.95;4.85;;;;;;;22.96;56.71;95617.00;5004118;28;20290;-85
2022/06/16 00:38:40;;;;;;;5.80;4.85;;;;;;;22.89;56.87;95622.50;4999528;28;20223;-83
2022/06/16 00:41:07;;;;;;;5.10;4.70;;;;;;;22.89;57.05;95625.13;5014063;28;20269;-85
2022/06/16 00:43:35;;;;;;;5.72;5.22;;;;;;;22.95;57.18;95615.44;5002688;28;20843;-85
2022/06/16 00:46:04;;;;;;;5.40;5.00;;;;;;;22.92;56.67;95624.59;4996026;28;20199;-83
2022/06/16 00:48:35;;;;;;;5.20;4.70;;;;;;;22.90;56.58;95618.03;5014607;28;20257;-83
2022/06/16 00:51:06;;;;;;;6.43;5.18;;;;;;;22.90;56.92;95615.41;5004620;28;20195;-83
2022/06/16 00:53:32;;;;;;;5.55;5.05;;;;;;;22.85;57.32;95616.16;4994222;28;20239;-84
2022/06/16 00:55:59;;;;;;;7.05;5.03;;;;;;;22.52;58.55;95614.56;5003377;28;20207;-84
2022/06/16 00:58:28;;;;;;;5.65;4.85;;;;;;;22.37;59.12;95622.31;4997251;28;20215;-84
2022/06/16 01:00:56;;;;;;;5.57;4.80;;;;;;;22.40;58.93;95621.81;5001458;28;20249;-84
2022/06/16 01:06:20;;;;;;;6.05;5.03;;;;;;;22.43;59.13;95626.56;5012311;28;20686;-85
2022/06/16 01:08:50;;;;;;;5.35;4.95;;;;;;;22.47;58.87;95629.50;5013246;28;20257;-83
2022/06/16 01:14:15;;;;;;;5.45;4.95;;;;;;;22.52;57.53;95617.19;4993506;28;20765;-83
2022/06/16 01:16:47;;;;;;;4.80;4.40;;;;;;;22.61;56.32;95620.16;4999800;28;20199;-84
2022/06/16 01:19:35;;;;;;;4.78;4.30;;;;;;;22.64;55.47;95615.19;4995651;28;20199;-83
2022/06/16 01:22:16;;;;;;;4.20;3.80;;;;;;;22.62;55.18;95606.00;5012510;28;20751;-83
2022/06/16 01:25:00;;;;;;;4.40;3.90;;;;;;;22.66;55.12;95610.50;5010891;28;20229;-83
2022/06/16 01:27:51;;;;;;;3.85;3.38;;;;;;;22.69;54.42;95612.63;5011064;28;20996;-83
2022/06/16 01:30:26;;;;;;;4.13;3.83;;;;;;;22.72;54.85;95612.09;5006555;28;20199;-84
2022/06/16 01:33:00;;;;;;;6.97;3.97;;;;;;;22.69;54.92;95623.13;5011915;28;20241;-84
2022/06/16 01:35:35;;;;;;;5.10;3.70;;;;;;;22.67;54.86;95613.91;5002270;28;20222;-82
2022/06/16 01:38:11;;;;;;;6.40;3.58;;;;;;;22.66;54.37;95623.63;4993048;28;20223;-85
2022/06/16 01:40:41;;;;;;;6.03;3.30;;;;;;;22.68;53.89;95618.13;5005757;28;20230;-83
2022/06/16 01:43:13;;;;;;;4.68;3.72;;;;;;;22.69;53.97;95622.34;4983594;28;20234;-83
2022/06/16 01:45:46;;;;;;;5.25;3.80;;;;;;;22.66;54.37;95610.50;5009112;28;20223;-83
2022/06/16 01:48:14;;;;;;;6.20;3.72;;;;;;;22.64;54.51;95609.16;5012182;28;20637;-84
2022/06/16 01:50:44;;;;;;;4.22;3.72;;;;;;;22.61;54.85;95612.28;4993431;28;20265;-85
2022/06/16 01:53:16;;;;;;;3.97;3.67;;;;;;;22.63;54.43;95618.06;4993307;28;20359;-84
2022/06/16 01:55:49;;;;;;;5.18;3.90;;;;;;;22.66;54.23;95607.06;4992498;28;20623;-85
2022/06/16 01:58:22;;;;;;;4.40;3.65;;;;;;;22.65;54.11;95616.00;5005248;28;20215;-83
2022/06/16 02:00:51;;;;;;;4.28;3.92;;;;;;;22.64;54.18;95609.94;5011618;28;20239;-84
2022/06/16 02:03:22;;;;;;;5.05;3.63;;;;;;;22.60;54.52;95598.38;5001281;28;20219;-84
2022/06/16 02:05:53;;;;;;;4.05;3.65;;;;;;;22.62;53.92;95600.75;5011989;28;20227;-84
2022/06/16 02:08:24;;;;;;;5.30;4.00;;;;;;;22.65;53.80;95592.38;5011821;28;20226;-83
2022/06/16 02:10:54;;;;;;;4.00;3.55;;;;;;;22.64;53.82;95593.41;5011519;28;20202;-83
2022/06/16 02:13:25;;;;;;;5.55;3.65;;;;;;;22.64;53.49;95596.81;4992724;28;20242;-84
2022/06/16 02:15:58;;;;;;;4.28;3.53;;;;;;;22.64;53.33;95602.06;4992383;28;20234;-85
2022/06/16 02:18:27;;;;;;;3.72;3.42;;;;;;;22.62;53.69;95600.75;5011201;28;20219;-85
2022/06/16 02:20:59;;;;;;;4.20;3.80;;;;;;;22.63;53.62;95602.31;5004516;28;20195;-83
2022/06/16 02:23:26;;;;;;;3.95;3.65;;;;;;;22.64;53.97;95603.91;5009932;28;20234;-84
2022/06/16 02:25:55;;;;;;;4.18;3.88;;;;;;;22.59;53.94;95594.16;5005969;28;20216;-83
2022/06/16 02:28:24;;;;;;;4.00;3.38;;;;;;;22.57;54.15;95592.81;4991886;28;20231;-84
2022/06/16 02:31:11;;;;;;;4.00;3.70;;;;;;;22.53;54.22;95597.78;4999092;28;20593;-84
2022/06/16 02:33:48;;;;;;;4.25;3.90;;;;;;;22.50;54.50;95593.06;4991298;28;20282;-84
2022/06/16 02:36:28;;;;;;;4.07;3.67;;;;;;;22.48;54.51;95597.75;4991879;28;20382;-84
2022/06/16 02:39:09;;;;;;;4.40;4.00;;;;;;;22.37;55.09;95596.06;4995507;28;20273;-83
2022/06/16 02:41:46;;;;;;;4.38;3.95;;;;;;;22.27;55.69;95590.75;4995081;28;20210;-83
2022/06/16 02:44:21;;;;;;;4.10;3.72;;;;;;;22.22;56.55;95594.13;4976317;28;20286;-83
2022/06/16 02:47:02;;;;;;;4.65;3.80;;;;;;;22.25;56.27;95598.09;4977347;28;20234;-83
2022/06/16 02:49:37;;;;;;;4.03;3.72;;;;;;;22.19;56.35;95592.00;4984537;28;20208;-84
2022/06/16 02:52:20;;;;;;;4.22;3.78;;;;;;;22.12;56.36;95598.50;4977384;28;20199;-83
2022/06/16 02:54:55;;;;;;;4.35;3.63;;;;;;;22.05;56.98;95602.09;4995430;28;20195;-82
2022/06/16 02:57:30;;;;;;;3.88;3.58;;;;;;;22.12;56.53;95596.66;4990897;28;20281;-84
2022/06/16 03:00:01;;;;;;;4.07;3.67;;;;;;;22.02;56.70;95581.63;4988668;28;20199;-84
2022/06/16 03:02:30;;;;;;;4.57;3.92;;;;;;;21.94;56.71;95574.16;4989784;28;20258;-82
2022/06/16 03:05:01;;;;;;;4.78;3.67;;;;;;;22.00;56.56;95572.41;4992282;28;20273;-83
2022/06/16 03:07:28;;;;;;;4.53;3.90;;;;;;;22.12;56.10;95572.28;4990278;28;20374;-83
2022/06/16 03:09:55;;;;;;;4.60;3.67;;;;;;;22.01;56.37;95568.75;4975570;28;20231;-83
2022/06/16 03:12:22;;;;;;;4.80;3.83;;;;;;;22.07;55.83;95572.22;4981875;28;20241;-83
2022/06/16 03:14:48;;;;;;;5.18;3.50;;;;;;;22.11;55.61;95571.47;5014176;28;20199;-84
2022/06/16 03:17:15;;;;;;;3.75;3.30;;;;;;;22.13;55.18;95574.63;5009077;28;20234;-83
2022/06/16 03:19:43;;;;;;;7.65;3.45;;;;;;;22.14;55.23;95570.16;5014807;28;20199;-83
2022/06/16 03:22:11;;;;;;;4.20;3.40;;;;;;;22.18;54.74;95569.44;5009363;28;20226;-83
2022/06/16 03:24:38;;;;;;;6.55;3.28;;;;;;;22.21;54.43;95571.56;4994674;28;20207;-85
2022/06/16 03:27:08;;;;;;;5.22;3.55;;;;;;;22.22;54.54;95567.91;4987915;28;20303;-83
2022/06/16 03:29:34;;;;;;;5.40;3.50;;;;;;;22.21;54.68;95574.19;4975585;28;20208;-82
2022/06/16 03:32:01;;;;;;;3.63;3.00;;;;;;;22.25;54.45;95585.75;4993725;28;20621;-83
2022/06/16 03:34:27;;;;;;;4.13;3.67;;;;;;;22.28;54.08;95587.09;5014629;28;20230;-83
2022/06/16 03:36:57;;;;;;;4.80;3.50;;;;;;;22.27;53.62;95583.69;5003396;28;20265;-84
2022/06/16 03:39:24;;;;;;;4.50;3.42;;;;;;;22.24;53.85;95580.75;5014982;28;20227;-83
2022/06/16 03:41:51;;;;;;;3.85;3.15;;;;;;;22.28;53.50;95574.78;4998364;28;20207;-83
2022/06/16 03:44:17;;;;;;;6.13;3.67;;;;;;;22.30;53.42;95582.41;4994684;28;20564;-83
2022/06/16 03:46:43;;;;;;;5.03;3.38;;;;;;;22.31;53.51;95583.97;5004144;28;20219;-82
2022/06/16 03:49:10;;;;;;;6.18;3.60;;;;;;;22.32;53.45;95585.56;4993870;28;20915;-83
2022/06/16 03:51:38;;;;;;;4.00;3.05;;;;;;;22.34;52.74;95586.88;5013052;28;20246;-83
2022/06/16 03:54:05;;;;;;;3.95;3.25;;;;;;;22.25;52.56;95585.75;5012948;28;20222;-83
2022/06/16 03:56:32;;;;;;;3.40;3.05;;;;;;;22.27;52.83;95585.50;5011807;28;20198;-84
2022/06/16 03:58:58;;;;;;;3.30;3.00;;;;;;;22.29;52.66;95584.22;5011439;28;20202;-84
2022/06/16 04:01:25;;;;;;;5.18;3.58;;;;;;;22.28;52.64;95587.88;5012484;28;20202;-83
2022/06/16 04:04:00;;;;;;;3.72;3.42;;;;;;;22.26;53.20;95576.06;4988411;28;20878;-85
2022/06/16 04:06:27;;;;;;;4.13;3.30;;;;;;;22.22;53.53;95590.72;4993687;28;20698;-85
2022/06/16 04:08:53;;;;;;;3.47;3.17;;;;;;;22.21;53.45;95587.28;4993571;28;20266;-83
2022/06/16 04:11:31;;;;;;;3.50;3.20;;;;;;;22.28;53.06;95598.38;4992935;28;20211;-84
2022/06/16 04:14:02;;;;;;;5.75;3.35;;;;;;;22.35;52.95;95593.69;4992349;28;20250;-83
2022/06/16 04:16:33;;;;;;;3.88;3.40;;;;;;;22.44;52.56;95595.88;4994775;28;20184;-84
2022/06/16 04:19:00;;;;;;;3.70;3.40;;;;;;;22.51;52.45;95601.72;4993879;28;20207;-83
2022/06/16 04:21:27;;;;;;;3.65;3.35;;;;;;;22.54;52.26;95601.19;4993265;28;20199;-83
2022/06/16 04:23:54;;;;;;;4.13;3.15;;;;;;;22.55;52.17;95595.69;4993369;28;20301;-85
2022/06/16 04:26:22;;;;;;;4.40;3.22;;;;;;;22.52;52.10;95596.19;5008321;28;20212;-84
2022/06/16 04:28:49;;;;;;;4.03;3.10;;;;;;;22.54;52.36;95594.13;4996098;28;20231;-83
2022/06/16 04:31:19;;;;;;;4.90;3.10;;;;;;;22.52;52.17;95598.81;5004270;28;20199;-83
2022/06/16 04:33:45;;;;;;;3.90;3.47;;;;;;;22.49;52.45;95599.34;4985714;28;20270;-84
2022/06/16 04:36:13;;;;;;;3.83;3.47;;;;;;;22.51;52.59;95591.22;4989645;28;20192;-85
2022/06/16 04:38:39;;;;;;;5.32;3.35;;;;;;;22.42;52.86;95585.63;4973967;28;20236;-83
2022/06/16 04:41:06;;;;;;;7.55;3.72;;;;;;;22.39;52.93;95578.25;4991413;28;20258;-84
2022/06/16 04:43:34;;;;;;;6.55;3.65;;;;;;;22.32;53.87;95580.31;5003179;28;20226;-83
2022/06/16 04:46:03;;;;;;;6.88;3.50;;;;;;;22.41;53.45;95584.03;5000778;28;20623;-83
2022/06/16 04:48:30;;;;;;;7.30;3.80;;;;;;;22.49;53.26;95593.31;5011729;28;20223;-83
2022/06/16 04:50:56;;;;;;;3.42;3.20;;;;;;;22.61;53.07;95588.66;4992801;28;20208;-83
2022/06/16 04:53:23;;;;;;;3.80;3.15;;;;;;;22.70;52.54;95589.78;4971494;28;20638;-84
2022/06/16 04:55:54;;;;;;;4.60;3.03;;;;;;;22.79;52.30;95592.75;4993100;28;20898;-82
2022/06/16 04:58:20;;;;;;;4.32;3.50;;;;;;;22.87;52.20;95589.66;4988721;28;20215;-83
2022/06/16 05:00:48;;;;;;;4.10;3.10;;;;;;;22.93;51.89;95596.50;4993268;28;20206;-84
2022/06/16 05:03:15;;;;;;;4.03;3.25;;;;;;;22.95;51.29;95595.22;4984630;28;20274;-82
2022/06/16 05:05:42;;;;;;;5.93;3.25;;;;;;;22.99;51.53;95604.19;4993114;28;20224;-82
2022/06/16 05:08:08;;;;;;;4.47;3.50;;;;;;;22.99;51.62;95606.81;4976475;28;20231;-82
2022/06/16 05:10:35;;;;;;;3.50;3.20;;;;;;;23.02;51.48;95608.91;4973674;28;20200;-82
2022/06/16 05:13:02;;;;;;;4.80;3.42;;;;;;;23.08;51.54;95602.66;4987016;28;20297;-83
2022/06/16 05:15:28;;;;;;;3.83;3.00;;;;;;;23.21;51.42;95603.25;4992974;28;20199;-83
2022/06/16 05:17:56;;;;;;;4.45;3.50;;;;;;;23.29;51.41;95606.16;4979523;28;20220;-82
2022/06/16 05:20:23;;;;;;;4.88;3.28;;;;;;;23.31;51.41;95611.97;4972759;28;20695;-83
2022/06/16 05:22:49;;;;;;;5.90;3.60;;;;;;;23.36;51.59;95606.72;4992141;28;20226;-84
2022/06/16 05:25:16;;;;;;;4.85;3.60;;;;;;;23.49;51.37;95617.81;4997306;28;20682;-83
2022/06/16 05:27:42;;;;;;;6.18;3.50;;;;;;;23.57;51.35;95614.72;5001412;28;20227;-83
2022/06/16 05:30:09;;;;;;;7.40;3.60;;;;;;;23.62;51.59;95620.03;5007205;28;20198;-83
2022/06/16 05:32:36;;;;;;;5.78;3.35;;;;;;;23.67;51.67;95615.53;5010219;28;20272;-84
2022/06/16 05:35:04;;;;;;;4.97;3.75;;;;;;;23.76;51.75;95616.66;4996740;28;20695;-84
2022/06/16 05:37:31;;;;;;;4.18;3.45;;;;;;;23.83;51.56;95619.03;4991096;28;20231;-84
2022/06/16 05:39:58;;;;;;;4.03;3.63;;;;;;;23.87;51.57;95624.56;5010619;28;20206;-84
2022/06/16 05:42:24;;;;;;;3.72;3.40;;;;;;;23.99;51.78;95622.50;4995722;28;20646;-82
2022/06/16 05:44:51;;;;;;;5.38;3.75;;;;;;;24.07;51.86;95625.41;4990896;28;20706;-83
2022/06/16 05:47:17;;;;;;;4.10;3.58;;;;;;;24.19;51.75;95627.00;4991120;28;20223;-82
2022/06/16 05:49:44;;;;;;;4.45;3.00;;;;;;;24.25;51.65;95632.03;5001466;28;20198;-84
2022/06/16 05:52:14;;;;;;;5.00;3.55;;;;;;;24.07;51.90;95632.50;5001815;28;20770;-83
2022/06/16 05:54:42;;;;;;;4.45;3.60;;;;;;;24.04;52.67;95638.31;5005497;28;20263;-82
2022/06/16 05:57:09;;;;;;;4.15;3.28;;;;;;;24.06;52.58;95644.06;5010181;28;20219;-82
2022/06/16 05:59:35;;;;;;;5.85;3.70;;;;;;;24.13;52.87;95649.09;5010290;28;20278;-82
2022/06/16 06:02:02;;;;;;;4.65;3.70;;;;;;;24.22;52.94;95643.06;5003938;28;20228;-83
2022/06/16 06:04:30;;;;;;;7.00;3.60;;;;;;;24.18;52.92;95647.28;4993073;28;20195;-83
2022/06/16 06:06:57;;;;;;;3.85;3.50;;;;;;;24.27;53.08;95645.72;4994089;28;20253;-83
2022/06/16 06:17:40;;;;;;;4.20;3.80;;;;;;;24.42;53.39;95655.50;5009820;28;20234;-81
2022/06/16 06:20:08;;;;;;;5.25;3.88;;;;;;;24.45;53.48;95639.94;5003495;28;20195;-84
2022/06/16 06:22:34;;;;;;;7.50;3.65;;;;;;;24.58;53.08;95643.94;4991203;28;20238;-82
2022/06/16 06:25:03;;;;;;;6.38;3.60;;;;;;;24.63;52.48;95646.53;4991867;28;20622;-84
2022/06/16 06:27:32;;;;;;;6.22;3.38;;;;;;;24.62;51.58;95654.72;5009323;28;20280;-83
2022/06/16 06:29:59;;;;;;;5.38;3.65;;;;;;;24.62;51.67;95646.81;5008541;28;20798;-82
2022/06/16 06:32:27;;;;;;;7.10;3.83;;;;;;;24.52;51.00;95658.13;5002466;28;20235;-83
2022/06/16 06:34:56;;;;;;;8.15;3.78;;;;;;;24.51;50.91;95640.75;4973402;28;20200;-83
2022/06/16 06:37:25;;;;;;;6.82;3.72;;;;;;;24.65;50.92;95641.00;4987656;28;20258;-81
2022/06/16 06:39:52;;;;;;;6.20;3.60;;;;;;;24.72;50.83;95641.56;4990669;28;20871;-83
2022/06/16 06:42:21;;;;;;;5.78;3.80;;;;;;;24.75;50.83;95633.91;4993716;28;20234;-84
2022/06/16 06:44:48;;;;;;;5.00;3.63;;;;;;;24.72;50.68;95642.34;5005564;28;20199;-82
2022/06/16 06:47:18;;;;;;;4.45;3.50;;;;;;;24.72;51.15;95638.91;4991757;28;20231;-82
2022/06/16 06:49:45;;;;;;;4.22;3.53;;;;;;;24.78;51.03;95641.28;5007171;28;20198;-80
2022/06/16 06:52:11;;;;;;;5.28;3.45;;;;;;;24.74;51.83;95640.25;5003100;28;20227;-81
2022/06/16 06:54:38;;;;;;;5.30;3.78;;;;;;;24.74;51.64;95653.41;4990507;28;20203;-81
2022/06/16 06:57:05;;;;;;;4.82;3.70;;;;;;;24.72;51.44;95652.88;4989432;28;20231;-80
2022/06/16 06:59:32;;;;;;;8.50;3.60;;;;;;;24.72;52.06;95657.34;4971479;28;20200;-82
2022/06/16 07:01:59;;;;;;;5.57;3.78;;;;;;;24.77;51.82;95660.78;4969612;28;20210;-82
2022/06/16 07:04:25;;;;;;;5.57;4.00;;;;;;;24.81;52.54;95670.78;4987813;28;20199;-81
2022/06/16 07:06:52;;;;;;;6.28;3.95;;;;;;;24.72;52.54;95667.88;4989113;28;20246;-83
2022/06/16 07:09:18;;;;;;;4.72;4.00;;;;;;;24.69;53.07;95677.09;4980455;28;20234;-82
2022/06/16 07:11:45;;;;;;;6.07;3.72;;;;;;;24.67;53.03;95675.78;4982296;28;20262;-82
2022/06/16 07:14:13;;;;;;;4.57;3.85;;;;;;;24.68;53.26;95683.41;5006412;28;20246;-82
2022/06/16 07:16:43;;;;;;;6.82;4.20;;;;;;;24.64;53.53;95684.19;4995977;28;20200;-83
2022/06/16 07:19:10;;;;;;;6.80;4.00;;;;;;;24.60;54.54;95677.91;4989646;28;20196;-83
2022/06/16 07:21:36;;;;;;;5.78;3.90;;;;;;;24.60;54.67;95685.78;5010866;28;20202;-81
2022/06/16 07:24:03;;;;;;;6.30;3.83;;;;;;;24.60;54.58;95686.59;4991114;28;20293;-84
2022/06/16 07:26:32;;;;;;;5.93;4.07;;;;;;;24.63;54.53;95695.81;5002172;28;20590;-83
2022/06/16 07:29:00;;;;;;;10.45;3.90;;;;;;;24.64;54.75;95673.66;5010590;28;20247;-83
2022/06/16 07:31:27;;;;;;;6.18;4.20;;;;;;;24.65;54.45;95656.81;5004973;28;20674;-84
2022/06/16 07:33:55;;;;;;;5.30;4.20;;;;;;;24.76;54.37;95653.13;4981119;28;20310;-83
2022/06/16 07:36:23;;;;;;;5.85;4.05;;;;;;;24.79;53.90;95674.47;4994505;28;20199;-83
2022/06/16 07:38:49;;;;;;;5.75;4.25;;;;;;;24.75;55.71;95668.16;4999406;23;20235;-83
2022/06/16 07:44:03;;;;;;;6.43;4.20;;;;;;;24.70;55.60;95656.81;4986066;28;20672;-83
2022/06/16 07:46:29;;;;;;;7.22;3.72;;;;;;;24.67;55.82;95657.34;4992870;28;20235;-82
2022/06/16 07:49:04;;;;;;;6.75;4.10;;;;;;;24.79;55.73;95660.53;4993100;28;20212;-83
2022/06/16 07:51:31;;;;;;;5.80;4.03;;;;;;;24.90;55.71;95654.19;4992018;28;20931;-85
2022/06/16 07:53:58;;;;;;;6.47;4.03;;;;;;;25.12;54.09;95644.19;4991021;28;20246;-82
2022/06/16 07:56:24;;;;;;;6.15;3.60;;;;;;;25.26;53.57;95649.69;4995107;28;20200;-84
2022/06/16 07:58:51;;;;;;;7.03;4.03;;;;;;;25.36;52.98;95636.47;4994410;28;20227;-84
2022/06/16 08:01:17;;;;;;;6.78;3.50;;;;;;;25.48;52.85;95639.59;4988395;28;20200;-86
2022/06/16 08:03:48;;;;;;;4.53;3.60;;;;;;;25.55;52.48;95636.69;4992768;28;20314;-82
2022/06/16 08:06:18;;;;;;;6.53;4.00;;;;;;;25.69;51.88;95639.56;4992794;28;20399;-84
2022/06/16 08:08:45;;;;;;;8.05;4.20;;;;;;;25.76;51.40;95647.97;4994365;28;20220;-83
2022/06/16 08:13:56;;;;;;;7.13;3.75;;;;;;;26.14;50.76;95659.66;4988766;28;20311;-85
2022/06/16 08:16:25;;;;;;;7.38;3.67;;;;;;;26.13;50.77;95660.72;4993602;28;20659;-84
2022/06/16 08:18:54;;;;;;;6.22;4.00;;;;;;;26.10;49.54;95664.69;4994640;28;20279;-86
2022/06/16 08:21:37;;;;;;;7.85;3.53;;;;;;;26.06;49.48;95661.00;4989661;28;20248;-85
2022/06/16 08:24:06;;;;;;;4.10;3.70;;;;;;;26.00;49.68;95667.38;4991498;28;20718;-86
2022/06/16 08:26:33;;;;;;;7.78;3.65;;;;;;;26.03;49.76;95673.97;4992896;28;20211;-84
2022/06/16 08:29:00;;;;;;;7.97;3.85;;;;;;;26.01;48.03;95687.41;4975051;28;20243;-84
2022/06/16 08:31:29;;;;;;;8.55;4.05;;;;;;;26.01;48.67;95682.16;4992206;28;20211;-84
2022/06/16 08:33:57;;;;;;;5.70;3.65;;;;;;;26.07;49.22;95693.47;4992539;28;20235;-84
2022/06/16 08:36:24;;;;;;;6.85;3.97;;;;;;;26.17;49.73;95698.69;4992166;28;20210;-82
2022/06/16 08:38:52;;;;;;;4.28;3.47;;;;;;;26.13;48.83;95702.97;4991327;28;20388;-83
2022/06/16 08:41:25;;;;;;;5.30;3.38;;;;;;;26.17;48.94;95719.81;4992490;28;20593;-86
2022/06/16 08:44:00;;;;;;;4.70;4.20;;;;;;;26.34;48.60;95715.03;4992109;28;20239;-85
2022/06/16 08:46:35;;;;;;;9.02;5.95;;;;;;;26.37;50.29;95708.38;4992483;28;20218;-84
2022/06/16 08:49:12;;;;;;;6.65;4.88;;;;;;;26.36;49.74;95704.94;4992692;28;20203;-86
2022/06/16 08:51:51;;;;;;;4.35;4.00;;;;;;;26.62;49.59;95710.88;4991291;28;20195;-83
2022/06/16 08:54:35;;;;;;;6.47;3.92;;;;;;;26.99;49.47;95699.78;4992781;28;20250;-83
2022/06/16 08:57:11;;;;;;;5.43;3.75;;;;;;;27.22;49.40;95697.50;4990256;28;20811;-85
2022/06/16 08:59:43;;;;;;;5.22;3.80;;;;;;;27.33;49.11;95697.09;4993790;28;20721;-84
2022/06/16 09:02:19;;;;;;;5.65;4.00;;;;;;;27.61;48.87;95695.53;4991263;28;20274;-84
2022/06/16 09:04:50;;;;;;;4.22;3.70;;;;;;;27.50;48.75;95696.69;4993026;28;20234;-84
2022/06/16 09:07:31;;;;;;;6.50;3.72;;;;;;;27.49;48.23;95692.47;4992406;28;20495;-86
2022/06/16 09:10:16;;;;;;;4.43;3.60;;;;;;;27.63;48.58;95703.19;4993014;28;20607;-85
2022/06/16 09:13:09;;;;;;;7.25;3.80;;;;;;;27.70;48.26;95707.09;4993029;28;20238;-85
2022/06/16 09:15:42;;;;;;;6.53;3.72;;;;;;;27.97;46.96;95697.78;4993457;28;20200;-84
2022/06/16 09:18:25;;;;;;;6.47;3.72;;;;;;;28.37;47.83;95712.38;4993461;28;20223;-83
2022/06/16 09:21:02;;;;;;;6.75;3.63;;;;;;;28.52;45.07;95706.84;4988913;28;20204;-85
2022/06/16 09:23:44;;;;;;;7.70;3.67;;;;;;;28.32;44.94;95717.72;4974236;28;20228;-86
2022/06/16 09:26:20;;;;;;;6.80;3.88;;;;;;;28.15;45.61;95720.84;4985937;28;20261;-84
2022/06/16 09:28:55;;;;;;;6.43;3.60;;;;;;;27.87;46.70;95729.66;4993673;28;20806;-83
2022/06/16 09:31:28;;;;;;;6.85;3.90;;;;;;;27.58;46.45;95730.47;4991515;28;20214;-84
2022/06/16 09:34:03;;;;;;;4.30;3.67;;;;;;;27.55;46.87;95728.38;4993523;28;20223;-86
2022/06/16 09:36:39;;;;;;;5.35;3.80;;;;;;;27.59;46.26;95723.34;4993911;28;20708;-84
2022/06/16 09:39:10;;;;;;;7.03;3.80;;;;;;;27.96;47.04;95725.31;4990172;28;20207;-82
2022/06/16 09:44:33;;;;;;;5.40;3.80;;;;;;;28.10;47.96;95718.25;4973589;28;20226;-83
2022/06/16 09:47:05;;;;;;;7.85;6.18;;;;;;;28.06;47.21;95727.84;4987096;28;20235;-84
2022/06/16 09:49:38;;;;;;;10.00;8.27;;;;;;;27.98;47.71;95728.47;4993859;28;20207;-82
2022/06/16 09:52:10;;;;;;;7.60;4.78;;;;;;;28.03;47.55;95731.06;4991378;28;20269;-84
2022/06/16 09:54:55;;;;;;;;;;;;;;;;;;;;;
2022/06/16 09:57:29;;;;;;;7.13;4.50;;;;;;;27.97;48.25;95740.91;4977999;28;20220;-85
2022/06/16 10:00:02;;;;;;;8.43;4.10;;;;;;;28.10;47.12;95740.22;4984180;28;20877;-84
2022/06/16 10:02:38;;;;;;;7.20;4.18;;;;;;;28.33;46.94;95737.84;4992078;28;20223;-82
2022/06/16 10:05:15;;;;;;;7.35;3.95;;;;;;;28.27;47.20;95745.09;4992542;28;20615;-83
2022/06/16 10:07:56;;;;;;;9.40;4.30;;;;;;;27.94;47.45;95753.91;4991235;28;20250;-84
2022/06/16 10:10:28;;;;;;;8.00;4.35;;;;;;;28.05;47.76;95752.75;4991233;28;20609;-83
2022/06/16 10:13:07;;;;;;;6.20;4.20;;;;;;;27.80;47.52;95749.31;4991924;28;20314;-83
2022/06/16 10:15:38;;;;;;;6.13;4.07;;;;;;;27.76;47.73;95752.78;4991515;28;20730;-85
2022/06/16 10:18:10;;;;;;;6.65;6.03;;;;;;;27.77;48.26;95755.16;4990429;28;20223;-86
2022/06/16 10:20:48;;;;;;;6.82;4.13;;;;;;;27.71;48.35;95758.16;4986721;28;20671;-86
2022/06/16 10:23:21;;;;;;;8.65;4.22;;;;;;;27.64;48.17;95750.53;4984067;28;20597;-83
2022/06/16 10:25:54;;;;;;;8.85;4.03;;;;;;;27.44;47.50;95763.94;4993446;28;20211;-85
2022/06/16 10:28:31;;;;;;;6.93;3.72;;;;;;;27.28;48.90;95770.41;5020491;23;20288;-84
2022/06/16 10:31:00;;;;;;;6.30;4.00;;;;;;;27.13;48.67;95773.97;5010880;28;20186;-84
2022/06/16 10:33:29;;;;;;;5.95;3.80;;;;;;;26.94;52.60;95788.91;5011692;28;20226;-84
2022/06/16 10:36:02;;;;;;;7.50;3.70;;;;;;;26.86;51.69;95781.53;5008681;28;20202;-84
2022/06/16 10:38:46;;;;;;;7.00;5.20;;;;;;;26.71;51.25;95783.22;5000469;28;20617;-85
2022/06/16 10:41:44;;;;;;;7.50;6.57;;;;;;;26.72;49.38;95778.72;5012091;28;20198;-86
2022/06/16 10:46:58;;;;;;;5.10;4.20;;;;;;;27.17;48.37;95782.91;5103971;22;20616;-81
2022/06/16 10:49:48;;;;;;;4.72;3.55;;;;;;;27.16;47.97;95783.97;4971967;28;20231;-85
2022/06/16 10:52:26;;;;;;;3.92;3.50;;;;;;;27.24;48.76;95777.31;4973558;28;20232;-85
2022/06/16 10:55:19;;;;;;;4.07;3.60;;;;;;;27.54;48.68;95779.69;4970527;28;20204;-83
2022/06/16 11:00:37;;;;;;;6.90;3.58;;;;;;;27.93;48.04;95769.00;4977432;28;20619;-85
2022/06/16 11:03:21;;;;;;;3.97;3.45;;;;;;;28.47;46.94;95773.97;4976185;28;20224;-85
2022/06/16 11:05:54;;;;;;;5.50;3.65;;;;;;;28.88;45.28;95766.25;4976677;28;20208;-85
2022/06/16 11:08:22;;;;;;;3.85;3.42;;;;;;;29.09;45.36;95766.72;4976966;28;20235;-84
2022/06/16 11:10:58;;;;;;;6.10;3.75;;;;;;;29.18;43.24;95759.72;4976595;28;20207;-86
2022/06/16 11:13:30;;;;;;;5.03;3.70;;;;;;;29.31;43.67;95758.16;4977265;28;20449;-83
2022/06/16 11:15:58;;;;;;;6.60;3.80;;;;;;;29.42;44.16;95758.81;4978460;28;20208;-84
2022/06/16 11:18:30;;;;;;;4.93;3.75;;;;;;;29.54;42.79;95767.88;4978582;28;20273;-88
2022/06/16 11:21:20;;;;;;;5.07;3.75;;;;;;;29.74;42.89;95757.97;4956064;29;20865;-84
2022/06/16 11:24:00;;;;;;;4.57;4.18;;;;;;;29.91;42.25;95750.22;4963857;28;20220;-85
2022/06/16 11:26:39;;;;;;;7.45;5.13;;;;;;;30.01;40.45;95751.94;4976532;28;20210;-84
2022/06/16 11:29:33;;;;;;;5.70;3.80;;;;;;;29.84;38.71;95742.63;4975946;28;20228;-85
2022/06/16 11:32:21;;;;;;;7.05;4.20;;;;;;;29.84;40.13;95760.44;4975131;28;20211;-84
2022/06/16 11:35:21;;;;;;;5.90;4.10;;;;;;;29.98;41.14;95755.97;4977604;28;20251;-85
2022/06/16 11:41:13;;;;;;;4.20;3.80;;;;;;;29.72;38.69;95755.63;4936441;29;20193;-85
2022/06/16 11:44:12;;;;;;;4.15;3.65;;;;;;;29.92;38.85;95754.44;4945356;28;20228;-84
2022/06/16 11:46:48;;;;;;;5.40;3.50;;;;;;;29.97;39.06;95759.66;4943162;28;20259;-85
2022/06/16 11:49:35;;;;;;;4.30;3.83;;;;;;;30.20;38.29;95761.38;4976778;28;20223;-84
2022/06/16 11:52:23;;;;;;;4.35;3.67;;;;;;;30.32;39.18;95755.53;4974562;28;20211;-84
2022/06/16 11:55:02;;;;;;;4.35;3.95;;;;;;;30.45;38.06;95757.38;4974973;28;20692;-83
2022/06/16 11:57:43;;;;;;;4.93;3.65;;;;;;;30.53;37.19;95748.72;4976456;28;20223;-84
2022/06/16 12:00:19;;;;;;;6.15;4.07;;;;;;;30.64;36.70;95740.53;4975427;28;20275;-83
2022/06/16 12:03:15;;;;;;;4.07;3.28;;;;;;;30.76;37.20;95736.28;4982206;28;20317;-84
2022/06/16 12:06:01;;;;;;;4.03;3.70;;;;;;;30.98;37.08;95734.72;4985498;28;20223;-83
2022/06/16 12:08:54;;;;;;;5.18;3.70;;;;;;;31.09;36.78;95733.38;4974331;28;20232;-84
2022/06/16 12:11:29;;;;;;;9.18;3.75;;;;;;;31.16;36.19;95731.91;4975338;28;20208;-82
2022/06/16 12:17:08;;;;;;;4.28;3.90;;;;;;;31.20;37.08;95727.53;4975743;28;20192;-84
2022/06/16 12:19:44;;;;;;;4.90;3.78;;;;;;;31.29;36.59;95726.81;4976640;28;20215;-83
2022/06/16 12:22:32;;;;;;;7.03;5.07;;;;;;;31.28;37.61;95719.91;4975107;28;20232;-84
2022/06/16 12:25:05;;;;;;;5.78;5.18;;;;;;;31.12;36.21;95722.16;4977239;28;20314;-85
2022/06/16 12:27:51;;;;;;;;;;;;;;;;;;;;;
2022/06/16 12:30:21;;;;;;;3.72;3.42;;;;;;;30.78;35.85;95733.31;4976253;28;20286;-83
2022/06/16 12:36:07;;;;;;;4.70;3.53;;;;;;;30.31;37.50;95731.94;4976462;28;20220;-83